Portada
METAR-TAF:

METAR-TAF

Aeroports :

Gwalior, Índia

latitud: 26-17-36N, longitud: 78-13-40E, altitud: 188 m

Observació

L'informe es va fer fa 3 hores i 50 minuts, a les 00:30 UTC
Vent 2 kt del Oest
Temperatura 14°C
Humitat 72%
Pressió 1015 hPa
Visibilitat: 6000 m
Cel clar

METAR: VIGR 230030Z 28002KT 6000 SKC 14/09 Q1015 NOSIG

Hora: 09:50 (04:20 UTC)

Pronòstic

L'informe es va fer fa 12 hores i 50 minuts, a les 15:30 UTC
Pronòstic vàlid del 23 a les 00 UTC al 23 a les 12 UTC
Vent 5 kt del Nord-Oest
Visibilitat: 4000 m
Escasses núvols a una alçada de 3000 ft
calitja
Evolucionant progressivament
l' 23 a les 03 UTC al 23 a les 05 UTC
Vent 10 kt del Nord-Oest
Visibilitat: 8000 m
calitja

TAF: VIGR 221530Z 2300/2312 32005KT 4000 HZ FEW030 BECMG 2303/2305 34010KT 5000 HZ 2306/2307 32010KT 8000 NSC

Observacions i pronòstics meteorològics de més de 4000 aeroports (METAR i TAF).

Les estacions disponibles són els punts grocs i vermells al mapa.

Posi el ratolí al punt desitjat per veure el nom de l'estació.

Feu clic per veure les observacions i els pronòstics meteorològics.

Per canviar el mapa: feu clic els botons verds amb una creu de color negre per apropar; al botó verd amb un guió per allunyar la imatge; o en les fletxes verdes per a mapes adjacents.


METAR-TAF: